Fergus Falls, MN (56537)

3:53 AM CDT on September 04, 2015 (GMT -0500)
West Central MN | | Change Station
CLOSE
Current Station
Personal Weather Station
Location: Fergus Falls, MN
Elevation: 1234 ft
Nearby Weather Stations

Elev 1234 ft 46.29 °N, 96.09 °W | Updated 56 seconds ago

Clear
Clear
73.1 °F
Feels Like 71 °F
N
5.9
Wind Variable Wind from ESE
Gusts 7.0 mph

Today
High -- | Low -- °F
--% Chance of Precip.
Yesterday
High -- | Low -- °F
Precip. -- in
6:48 AM 7:57 PM
Waning Gibbous, 61% visible
Pressure 29.80 in
Visibility 10.0 miles
Clouds Clear
Heat Index 71 °F
Dew Point 69 °F
Humidity 88%
Rainfall 0.00 in
Snow Depth Not available.
UV 0 out of 12
Pollen 11.70 out of 12
Air Quality Not available.
Flu Activity Not available.
METAR KFFM 040834Z AUTO 14009KT 10SM CLR 23/23 A2980 RMK AO2
Pressure 29.80 in
Visibility 10.0 miles
Clouds Clear
Heat Index 71 °F
Dew Point 69 °F
Humidity 88%
Rainfall 0.00 in
Snow Depth Not available.
UV 0 out of 12
Pollen 11.70 out of 12
Air Quality Not available.
Flu Activity Not available.
METAR KFFM 040834Z AUTO 14009KT 10SM CLR 23/23 A2980 RMK AO2

10-Day Weather Forecast

×

Almanac

Astronomy

Sep. 04, 2015 Rise Set
Actual Time
Civil Twilight
Nautical Twilight
Astronomical Twilight
Moon
Length of Visible Light
Length of Day
Tomorrow will be .
, % of the Moon is Illuminated

Today's Extremes

State Highs State Lows

Community

WunderPhotos

Upload Photos

1,852,141 photos uploaded!

WunderBlogs® & News

Nearby

Air Quality

  Air Quality AQ Index Pollutant
Not available.

Snow Depth

Station Depth Elevation

Earthquake Activity

City Distance Mag. Time & Date
Minimum magnitude displayed is 2.5.

Coastal Water Temperatures

Place Temperature

Stations

Nearby Weather Stations

Station Location Temp. Windchill Dew Point Humidity Wind Precip. Elev Updated Type